createdAt,value
2022-11-12T00:01:09.953Z,102075.00
2022-11-12T00:07:30.500Z,102083.00
2022-11-12T00:13:51.369Z,102083.00
2022-11-12T00:20:13.089Z,102068.00
2022-11-12T00:26:33.837Z,102078.00
2022-11-12T00:32:54.886Z,102072.00
2022-11-12T00:39:15.559Z,102076.00
2022-11-12T00:45:36.312Z,102074.00
2022-11-12T00:51:57.230Z,102067.00
2022-11-12T00:58:18.273Z,102068.00
2022-11-12T01:04:39.278Z,102063.00
2022-11-12T01:11:10.536Z,102060.00
2022-11-12T01:17:31.813Z,102053.00
2022-11-12T01:23:52.574Z,102046.00
2022-11-12T01:30:13.716Z,102051.00
2022-11-12T01:36:37.656Z,102046.00
2022-11-12T01:42:58.557Z,102048.00
2022-11-12T01:49:28.873Z,102048.00
2022-11-12T01:55:50.047Z,102053.00
2022-11-12T02:02:11.157Z,102049.00
2022-11-12T02:08:33.659Z,102045.00
2022-11-12T02:14:54.644Z,102040.00
2022-11-12T02:21:19.983Z,102037.00
2022-11-12T02:27:40.663Z,102036.00
2022-11-12T02:34:01.619Z,102034.00
2022-11-12T02:40:22.719Z,102036.00
2022-11-12T02:46:43.537Z,102036.00
2022-11-12T02:53:04.511Z,102040.00
2022-11-12T02:59:25.432Z,102055.00
2022-11-12T03:05:47.119Z,102056.00
2022-11-12T03:12:08.083Z,102045.00
2022-11-12T03:18:29.143Z,102056.00
2022-11-12T03:24:50.372Z,102053.00
2022-11-12T03:31:12.231Z,102055.00
2022-11-12T03:37:33.042Z,102068.00
2022-11-12T03:43:53.506Z,102081.00
2022-11-12T03:50:15.621Z,102081.00
2022-11-12T03:56:36.722Z,102076.00
2022-11-12T04:02:58.246Z,102083.00
2022-11-12T04:09:19.105Z,102082.00
2022-11-12T04:15:40.134Z,102082.00
2022-11-12T04:22:09.861Z,102074.00
2022-11-12T04:28:30.480Z,102077.00
2022-11-12T04:34:51.690Z,102073.00
2022-11-12T04:41:31.026Z,102073.00
2022-11-12T04:47:52.032Z,102069.00
2022-11-12T04:54:12.886Z,102078.00
2022-11-12T05:00:33.323Z,102070.00
2022-11-12T05:06:56.032Z,102072.00
2022-11-12T05:13:16.801Z,102088.00
2022-11-12T05:19:37.716Z,102090.00
2022-11-12T05:25:58.474Z,102090.00
2022-11-12T05:32:19.438Z,102096.00
2022-11-12T05:38:40.388Z,102100.00
2022-11-12T05:45:01.332Z,102121.00
2022-11-12T05:51:22.376Z,102121.00
2022-11-12T05:57:43.205Z,102115.00
2022-11-12T06:04:04.523Z,102108.00
2022-11-12T06:10:25.443Z,102084.00
2022-11-12T06:16:46.382Z,102143.00
2022-11-12T06:23:07.325Z,102084.00
2022-11-12T06:29:28.486Z,102163.00
2022-11-12T06:36:03.359Z,102091.00
2022-11-12T06:42:24.299Z,102063.00
2022-11-12T06:48:45.465Z,102141.00
2022-11-12T06:55:06.659Z,102155.00
2022-11-12T07:01:27.640Z,102176.00
2022-11-12T07:07:48.499Z,102187.00
2022-11-12T07:14:09.497Z,102049.00
2022-11-12T07:20:30.639Z,101990.00
2022-11-12T07:26:51.073Z,101997.00
2022-11-12T07:33:11.943Z,102050.00
2022-11-12T07:39:32.700Z,102014.00
2022-11-12T07:45:54.034Z,102030.00
2022-11-12T07:52:14.916Z,102069.00
2022-11-12T07:58:35.699Z,102084.00
2022-11-12T08:04:56.489Z,102189.00
2022-11-12T08:11:17.453Z,102178.00
2022-11-12T08:17:40.982Z,102111.00
2022-11-12T08:24:01.918Z,102167.00
2022-11-12T08:30:22.739Z,102122.00
2022-11-12T08:36:43.643Z,102132.00
2022-11-12T08:43:09.761Z,102191.00
2022-11-12T08:49:31.154Z,102221.00
2022-11-12T08:55:56.535Z,102222.00
2022-11-12T09:02:17.065Z,102224.00
2022-11-12T09:08:38.321Z,102220.00
2022-11-12T09:15:09.694Z,102206.00
2022-11-12T09:21:39.586Z,102207.00
2022-11-12T09:28:16.629Z,102202.00
2022-11-12T09:34:37.321Z,102205.00
2022-11-12T09:41:27.340Z,102205.00
2022-11-12T09:47:58.037Z,102202.00
2022-11-12T09:54:21.958Z,102204.00
2022-11-12T10:00:49.716Z,102188.00
2022-11-12T10:07:22.451Z,102181.00
2022-11-12T10:14:15.345Z,102189.00
2022-11-12T10:20:55.164Z,102182.00
2022-11-12T10:27:19.808Z,102176.00
2022-11-12T10:33:40.437Z,102171.00
2022-11-12T10:40:21.153Z,102161.00
2022-11-12T10:46:42.064Z,102177.00
2022-11-12T10:53:06.082Z,102177.00
2022-11-12T10:59:26.890Z,102170.00
2022-11-12T11:05:52.645Z,102170.00
2022-11-12T11:12:27.628Z,102162.00
2022-11-12T11:19:02.593Z,102158.00
2022-11-12T11:25:30.029Z,102156.00
2022-11-12T11:32:11.494Z,102042.00
2022-11-12T11:38:42.109Z,102044.00
2022-11-12T11:45:24.706Z,102036.00
2022-11-12T11:51:45.375Z,102108.00
2022-11-12T11:58:24.423Z,102157.00
2022-11-12T12:04:45.143Z,102147.00
2022-11-12T12:11:14.347Z,102143.00
2022-11-12T12:17:40.981Z,102148.00
2022-11-12T12:24:03.833Z,102144.00
2022-11-12T12:36:52.378Z,102147.00
2022-11-12T12:43:23.130Z,102136.00
2022-11-12T12:49:46.285Z,102133.00
2022-11-12T12:56:23.878Z,102143.00
2022-11-12T13:02:46.424Z,102144.00
2022-11-12T13:09:24.784Z,102147.00
2022-11-12T13:15:56.247Z,102153.00
2022-11-12T13:22:20.118Z,102160.00
2022-11-12T13:29:19.556Z,102166.00
2022-11-12T13:35:40.941Z,102159.00
2022-11-12T13:42:27.807Z,102162.00
2022-11-12T13:48:59.819Z,102172.00
2022-11-12T13:55:22.821Z,102164.00
2022-11-12T14:01:44.458Z,102173.00
2022-11-12T14:08:39.160Z,102166.00
2022-11-12T14:15:05.974Z,102162.00
2022-11-12T14:21:26.924Z,102154.00
2022-11-12T14:27:50.481Z,102160.00
2022-11-12T14:34:22.344Z,102149.00
2022-11-12T14:40:50.772Z,102136.00
2022-11-12T14:47:11.789Z,102140.00
2022-11-12T14:53:42.401Z,102149.00
2022-11-12T15:00:22.185Z,102142.00
2022-11-12T15:06:43.072Z,102144.00
2022-11-12T15:13:15.056Z,102131.00
2022-11-12T15:19:36.001Z,102131.00
2022-11-12T15:26:00.926Z,102140.00
2022-11-12T15:32:21.583Z,102150.00
2022-11-12T15:38:48.925Z,102146.00
2022-11-12T15:45:19.985Z,102158.00
2022-11-12T15:51:40.376Z,102161.00
2022-11-12T15:58:00.837Z,102153.00
2022-11-12T16:04:21.640Z,102156.00
2022-11-12T16:10:45.343Z,102163.00
2022-11-12T16:17:09.946Z,102162.00
2022-11-12T16:23:31.201Z,102155.00
2022-11-12T16:29:52.209Z,102147.00
2022-11-12T16:36:14.858Z,102156.00
2022-11-12T16:42:36.059Z,102138.00
2022-11-12T16:48:57.352Z,102144.00
2022-11-12T16:55:17.969Z,102151.00
2022-11-12T17:01:38.737Z,102165.00
2022-11-12T17:07:59.834Z,102161.00
2022-11-12T17:14:25.526Z,102168.00
2022-11-12T17:20:51.374Z,102170.00
2022-11-12T17:27:12.477Z,102165.00
2022-11-12T17:33:37.732Z,102168.00
2022-11-12T17:39:58.349Z,102170.00
2022-11-12T17:46:19.147Z,102178.00
2022-11-12T17:52:39.954Z,102174.00
2022-11-12T17:59:02.375Z,102178.00
2022-11-12T18:05:23.415Z,102175.00
2022-11-12T18:11:54.490Z,102175.00
2022-11-12T18:18:15.289Z,102185.00
2022-11-12T18:24:36.456Z,102173.00
2022-11-12T18:31:04.754Z,102183.00
2022-11-12T18:37:25.686Z,102185.00
2022-11-12T18:43:46.399Z,102186.00
2022-11-12T18:50:08.975Z,102183.00
2022-11-12T18:56:29.756Z,102169.00
2022-11-12T19:02:51.057Z,102180.00
2022-11-12T19:09:12.117Z,102169.00
2022-11-12T19:15:34.454Z,102177.00
2022-11-12T19:21:55.438Z,102179.00
2022-11-12T19:28:16.437Z,102188.00
2022-11-12T19:34:37.424Z,102185.00
2022-11-12T19:41:17.759Z,102175.00
2022-11-12T19:47:40.832Z,102176.00
2022-11-12T19:54:02.296Z,102183.00
2022-11-12T20:00:23.323Z,102189.00
2022-11-12T20:06:44.148Z,102185.00
2022-11-12T20:13:05.078Z,102179.00
2022-11-12T20:19:26.999Z,102190.00
2022-11-12T20:25:48.124Z,102182.00
2022-11-12T20:32:08.939Z,102181.00
2022-11-12T20:38:30.053Z,102179.00
2022-11-12T20:44:51.329Z,102185.00
2022-11-12T20:51:24.196Z,102184.00
2022-11-12T20:57:45.654Z,102189.00
2022-11-12T21:04:06.275Z,102193.00
2022-11-12T21:10:27.333Z,102202.00
2022-11-12T21:16:47.918Z,102199.00
2022-11-12T21:23:09.156Z,102199.00
2022-11-12T21:29:29.966Z,102206.00
2022-11-12T21:35:54.120Z,102196.00
2022-11-12T21:42:15.078Z,102196.00
2022-11-12T21:48:36.015Z,102198.00
2022-11-12T21:54:57.137Z,102183.00
2022-11-12T22:01:23.441Z,102200.00
2022-11-12T22:07:44.347Z,102194.00
2022-11-12T22:14:05.340Z,102194.00
2022-11-12T22:20:26.415Z,102203.00
2022-11-12T22:26:47.455Z,102197.00
2022-11-12T22:33:08.000Z,102196.00
2022-11-12T22:39:28.925Z,102190.00
2022-11-12T22:45:49.749Z,102188.00
2022-11-12T22:52:10.498Z,102197.00
2022-11-12T22:58:34.761Z,102192.00
2022-11-12T23:04:55.600Z,102189.00
2022-11-12T23:11:19.465Z,102190.00
2022-11-12T23:17:40.168Z,102188.00
2022-11-12T23:24:00.794Z,102170.00
2022-11-12T23:30:26.350Z,102184.00
2022-11-12T23:36:47.214Z,102177.00
2022-11-12T23:43:08.104Z,102166.00
2022-11-12T23:49:28.861Z,102165.00
2022-11-12T23:55:49.810Z,102167.00
